createdAt,value
2019-04-07T00:00:25.792Z,31.33
2019-04-07T00:02:57.983Z,38.63
2019-04-07T00:05:29.768Z,30.53
2019-04-07T00:08:01.817Z,29.60
2019-04-07T00:10:34.307Z,33.18
2019-04-07T00:15:36.893Z,33.90
2019-04-07T00:18:08.836Z,28.98
2019-04-07T00:20:40.812Z,29.92
2019-04-07T00:23:13.003Z,35.00
2019-04-07T00:25:45.095Z,33.30
2019-04-07T00:28:17.219Z,30.77
2019-04-07T00:30:48.908Z,34.08
2019-04-07T00:33:20.845Z,36.40
2019-04-07T00:35:52.643Z,31.15
2019-04-07T00:38:24.910Z,37.67
2019-04-07T00:40:56.746Z,43.05
2019-04-07T00:43:29.215Z,32.35
2019-04-07T00:46:01.333Z,48.92
2019-04-07T00:48:33.348Z,43.42
2019-04-07T00:51:05.168Z,41.68
2019-04-07T00:53:37.533Z,34.90
2019-04-07T00:56:09.432Z,36.93
2019-04-07T00:58:42.289Z,35.70
2019-04-07T01:01:16.384Z,39.85
2019-04-07T01:03:49.428Z,37.78
2019-04-07T01:06:21.096Z,37.20
2019-04-07T01:08:53.663Z,40.78
2019-04-07T01:13:56.228Z,37.70
2019-04-07T01:16:28.504Z,35.00
2019-04-07T01:19:00.377Z,37.28
2019-04-07T01:21:33.035Z,33.30
2019-04-07T01:24:05.610Z,38.98
2019-04-07T01:26:37.453Z,39.23
2019-04-07T01:29:09.276Z,37.70
2019-04-07T01:31:41.591Z,32.15
2019-04-07T01:34:13.660Z,38.67
2019-04-07T01:36:46.372Z,35.88
2019-04-07T01:39:18.360Z,43.33
2019-04-07T01:41:51.856Z,36.68
2019-04-07T01:44:25.573Z,45.95
2019-04-07T01:47:02.378Z,35.28
2019-04-07T01:49:41.607Z,34.40
2019-04-07T01:52:29.995Z,35.65
2019-04-07T01:55:03.767Z,29.45
2019-04-07T01:57:39.944Z,36.68
2019-04-07T02:00:16.236Z,37.65
2019-04-07T02:02:52.616Z,37.33
2019-04-07T02:05:26.985Z,35.73
2019-04-07T02:08:09.420Z,34.90
2019-04-07T02:10:46.054Z,40.83
2019-04-07T02:13:22.831Z,40.10
2019-04-07T02:15:59.236Z,35.88
2019-04-07T02:18:50.801Z,40.17
2019-04-07T02:21:27.406Z,36.65
2019-04-07T02:24:04.844Z,36.77
2019-04-07T02:26:44.421Z,38.78
2019-04-07T02:29:35.878Z,40.05
2019-04-07T02:32:18.113Z,35.75
2019-04-07T02:35:00.067Z,34.33
2019-04-07T02:37:36.702Z,32.60
2019-04-07T02:40:10.490Z,36.45
2019-04-07T02:42:46.231Z,33.88
2019-04-07T02:45:25.145Z,44.90
2019-04-07T02:48:05.124Z,39.50
2019-04-07T02:50:44.123Z,40.25
2019-04-07T02:53:21.688Z,41.83
2019-04-07T02:56:07.982Z,37.75
2019-04-07T02:58:47.783Z,40.10
2019-04-07T03:01:24.096Z,41.98
2019-04-07T03:04:03.591Z,39.30
2019-04-07T03:06:44.085Z,36.68
2019-04-07T03:09:11.836Z,37.30
2019-04-07T03:11:47.898Z,35.35
2019-04-07T03:14:21.655Z,38.28
2019-04-07T03:16:55.743Z,35.28
2019-04-07T03:19:30.333Z,48.92
2019-04-07T03:22:03.368Z,38.45
2019-04-07T03:24:53.190Z,39.60
2019-04-07T03:27:30.247Z,43.33
2019-04-07T03:30:21.845Z,39.95
2019-04-07T03:33:06.026Z,39.50
2019-04-07T03:35:40.999Z,40.98
2019-04-07T03:38:27.295Z,33.58
2019-04-07T03:41:03.680Z,38.38
2019-04-07T03:43:46.400Z,36.63
2019-04-07T03:46:20.325Z,36.73
2019-04-07T03:49:05.930Z,36.77
2019-04-07T03:51:51.555Z,38.40
2019-04-07T03:54:37.822Z,42.43
2019-04-07T03:57:11.361Z,42.38
2019-04-07T04:00:02.078Z,38.90
2019-04-07T04:02:44.530Z,40.67
2019-04-07T04:05:34.082Z,37.38
2019-04-07T04:08:07.665Z,37.60
2019-04-07T04:10:43.585Z,37.40
2019-04-07T04:13:24.304Z,40.05
2019-04-07T04:16:01.066Z,33.67
2019-04-07T04:18:32.742Z,35.95
2019-04-07T04:21:07.029Z,35.35
2019-04-07T04:24:06.884Z,34.83
2019-04-07T04:26:46.236Z,36.13
2019-04-07T04:29:18.948Z,34.67
2019-04-07T04:31:51.042Z,34.38
2019-04-07T04:34:23.667Z,31.75
2019-04-07T04:36:56.299Z,38.92
2019-04-07T04:39:29.338Z,35.52
2019-04-07T04:42:02.087Z,41.92
2019-04-07T04:44:33.976Z,40.50
2019-04-07T04:47:06.064Z,34.23
2019-04-07T04:49:38.431Z,33.13
2019-04-07T04:54:40.976Z,39.90
2019-04-07T04:57:13.200Z,34.58
2019-04-07T04:59:45.880Z,44.25
2019-04-07T05:02:17.669Z,41.33
2019-04-07T05:04:49.843Z,43.28
2019-04-07T05:07:22.202Z,38.30
2019-04-07T05:09:56.639Z,34.90
2019-04-07T05:12:28.662Z,38.45
2019-04-07T05:15:00.660Z,39.45
2019-04-07T05:17:32.565Z,34.70
2019-04-07T05:20:06.062Z,37.28
2019-04-07T05:22:38.053Z,39.88
2019-04-07T05:25:10.463Z,42.00
2019-04-07T05:27:43.226Z,35.48
2019-04-07T05:30:15.651Z,46.02
2019-04-07T05:32:47.847Z,40.58
2019-04-07T05:35:19.606Z,38.28
2019-04-07T05:38:01.228Z,43.85
2019-04-07T05:40:25.455Z,40.25
2019-04-07T05:42:57.517Z,40.65
2019-04-07T05:45:29.229Z,37.13
2019-04-07T05:48:01.153Z,39.85
2019-04-07T05:50:33.461Z,35.70
2019-04-07T05:53:09.500Z,37.98
2019-04-07T05:55:39.303Z,35.70
2019-04-07T06:00:45.897Z,40.38
2019-04-07T06:03:17.670Z,51.55
2019-04-07T06:05:51.124Z,52.30
2019-04-07T06:08:32.155Z,48.85
2019-04-07T06:11:02.048Z,49.20
2019-04-07T06:13:32.828Z,41.45
2019-04-07T06:16:05.347Z,37.48
2019-04-07T06:21:09.318Z,48.68
2019-04-07T06:26:13.066Z,37.13
2019-04-07T06:28:48.473Z,31.97
2019-04-07T06:31:18.387Z,37.60
2019-04-07T06:33:51.289Z,32.63
2019-04-07T06:36:26.868Z,32.78
2019-04-07T06:38:59.366Z,43.58
2019-04-07T06:41:33.060Z,30.02
2019-04-07T06:44:11.971Z,24.67
2019-04-07T06:46:49.180Z,27.85
2019-04-07T06:49:38.086Z,28.95
2019-04-07T06:52:14.710Z,32.13
2019-04-07T06:55:00.197Z,22.10
2019-04-07T06:57:49.980Z,22.13
2019-04-07T07:00:26.255Z,24.35
2019-04-07T07:03:08.467Z,28.70
2019-04-07T07:05:46.161Z,26.12
2019-04-07T07:08:21.908Z,28.32
2019-04-07T07:10:57.550Z,16.73
2019-04-07T07:13:34.656Z,14.95
2019-04-07T07:16:10.121Z,19.62
2019-04-07T07:18:58.164Z,15.78
2019-04-07T07:21:49.020Z,17.20
2019-04-07T07:24:25.034Z,16.52
2019-04-07T07:26:57.054Z,14.80
2019-04-07T07:29:27.872Z,13.15
2019-04-07T07:32:03.433Z,15.32
2019-04-07T07:34:33.922Z,17.37
2019-04-07T07:37:06.080Z,16.35
2019-04-07T07:39:41.936Z,16.30
2019-04-07T07:42:12.151Z,17.57
2019-04-07T07:44:44.357Z,16.32
2019-04-07T07:47:19.736Z,16.42
2019-04-07T07:49:49.764Z,18.52
2019-04-07T07:52:21.993Z,35.28
2019-04-07T07:54:55.121Z,16.67
2019-04-07T07:57:27.291Z,24.02
2019-04-07T08:00:00.279Z,13.05
2019-04-07T08:02:32.148Z,14.13
2019-04-07T08:05:04.242Z,17.67
2019-04-07T08:07:35.991Z,15.28
2019-04-07T08:10:08.564Z,16.97
2019-04-07T08:12:42.171Z,13.62
2019-04-07T08:15:14.180Z,20.27
2019-04-07T08:20:18.532Z,18.85
2019-04-07T08:22:50.498Z,17.95
2019-04-07T08:25:23.695Z,16.40
2019-04-07T08:27:56.493Z,15.05
2019-04-07T08:30:28.453Z,14.85
2019-04-07T08:33:01.297Z,14.13
2019-04-07T08:35:37.772Z,16.93
2019-04-07T08:38:07.107Z,19.50
2019-04-07T08:40:39.155Z,17.37
2019-04-07T08:43:11.486Z,12.58
2019-04-07T08:45:43.205Z,14.35
2019-04-07T08:48:18.239Z,15.45
2019-04-07T08:50:48.627Z,17.27
2019-04-07T08:53:20.441Z,20.88
2019-04-07T08:55:54.742Z,14.58
2019-04-07T08:58:29.760Z,13.70
2019-04-07T09:00:59.582Z,22.17
2019-04-07T09:03:31.481Z,22.80
2019-04-07T09:06:04.775Z,21.42
2019-04-07T09:08:39.007Z,14.90
2019-04-07T09:11:13.143Z,12.73
2019-04-07T09:13:46.561Z,19.48
2019-04-07T09:16:32.138Z,12.35
2019-04-07T09:19:14.955Z,10.88
2019-04-07T09:21:50.689Z,15.98
2019-04-07T09:24:33.427Z,16.97
2019-04-07T09:27:17.167Z,17.90
2019-04-07T09:29:47.825Z,15.20
2019-04-07T09:32:24.336Z,15.60
2019-04-07T09:35:13.502Z,10.65
2019-04-07T09:37:47.087Z,22.73
2019-04-07T09:40:37.201Z,21.68
2019-04-07T09:43:19.950Z,19.20
2019-04-07T09:46:02.847Z,14.05
2019-04-07T09:48:40.554Z,15.88
2019-04-07T09:51:29.834Z,11.93
2019-04-07T09:54:22.536Z,27.60
2019-04-07T09:57:10.819Z,18.50
2019-04-07T09:59:50.889Z,17.05
2019-04-07T10:02:31.811Z,24.00
2019-04-07T10:05:11.285Z,22.32
2019-04-07T10:07:54.347Z,20.50
2019-04-07T10:10:33.308Z,15.60
2019-04-07T10:13:24.600Z,22.65
2019-04-07T10:16:11.011Z,19.98
2019-04-07T10:18:48.119Z,22.95
2019-04-07T10:21:24.215Z,15.58
2019-04-07T10:24:03.246Z,13.55
2019-04-07T10:26:43.002Z,10.18
2019-04-07T10:29:25.425Z,13.70
2019-04-07T10:34:54.471Z,16.00
2019-04-07T10:37:44.558Z,10.50
2019-04-07T10:40:27.529Z,10.58
2019-04-07T10:43:10.602Z,17.87
2019-04-07T10:45:46.787Z,22.98
2019-04-07T10:48:26.156Z,19.02
2019-04-07T10:51:18.462Z,13.22
2019-04-07T10:54:00.450Z,10.98
2019-04-07T10:56:34.455Z,15.70
2019-04-07T10:59:17.515Z,18.02
2019-04-07T11:01:56.716Z,14.03
2019-04-07T11:04:30.615Z,13.35
2019-04-07T11:07:04.545Z,14.10
2019-04-07T11:09:55.276Z,15.50
2019-04-07T11:12:45.767Z,11.70
2019-04-07T11:15:28.030Z,15.40
2019-04-07T11:18:16.464Z,11.43
2019-04-07T11:20:49.759Z,12.68
2019-04-07T11:23:29.566Z,11.53
2019-04-07T11:26:19.089Z,17.75
2019-04-07T11:28:55.602Z,14.47
2019-04-07T11:31:38.540Z,18.60
2019-04-07T11:34:20.669Z,17.52
2019-04-07T11:36:54.481Z,13.00
2019-04-07T11:39:37.405Z,11.10
2019-04-07T11:42:26.259Z,14.33
2019-04-07T11:45:16.024Z,10.93
2019-04-07T11:47:52.545Z,13.15
2019-04-07T11:50:28.584Z,13.85
2019-04-07T11:53:17.624Z,13.80
2019-04-07T11:55:51.109Z,15.78
2019-04-07T11:58:40.888Z,11.63
2019-04-07T12:01:29.327Z,14.45
2019-04-07T12:04:02.567Z,17.27
2019-04-07T12:06:46.575Z,14.60
2019-04-07T12:09:33.754Z,13.08
2019-04-07T12:12:07.986Z,16.32
2019-04-07T12:14:50.085Z,13.45
2019-04-07T12:17:25.595Z,9.90
2019-04-07T12:20:15.169Z,16.40
2019-04-07T12:22:49.390Z,11.57
2019-04-07T12:25:38.508Z,12.18
2019-04-07T12:28:14.603Z,15.13
2019-04-07T12:30:59.946Z,10.98
2019-04-07T12:33:48.707Z,14.15
2019-04-07T12:36:32.178Z,14.23
2019-04-07T12:39:16.200Z,18.00
2019-04-07T12:41:51.382Z,16.00
2019-04-07T12:44:31.813Z,14.00
2019-04-07T12:47:08.066Z,16.87
2019-04-07T12:49:45.736Z,12.37
2019-04-07T12:52:35.521Z,13.25
2019-04-07T12:55:11.895Z,14.65
2019-04-07T12:57:44.681Z,14.10
2019-04-07T13:00:52.392Z,14.20
2019-04-07T13:03:21.137Z,15.35
2019-04-07T13:06:00.674Z,13.48
2019-04-07T13:08:36.758Z,19.70
2019-04-07T13:11:13.294Z,18.10
2019-04-07T13:14:01.642Z,15.08
2019-04-07T13:16:33.638Z,12.60
2019-04-07T13:19:15.789Z,17.80
2019-04-07T13:22:05.633Z,18.50
2019-04-07T13:24:39.300Z,20.25
2019-04-07T13:27:23.247Z,15.03
2019-04-07T13:30:05.873Z,10.15
2019-04-07T13:32:55.159Z,16.40
2019-04-07T13:35:35.162Z,11.53
2019-04-07T13:38:09.397Z,12.47
2019-04-07T13:40:45.727Z,15.78
2019-04-07T13:43:18.773Z,13.65
2019-04-07T13:46:02.451Z,19.37
2019-04-07T13:48:49.652Z,16.97
2019-04-07T13:51:29.077Z,16.17
2019-04-07T13:54:03.268Z,14.73
2019-04-07T13:56:39.711Z,14.63
2019-04-07T13:59:28.416Z,17.57
2019-04-07T14:02:05.324Z,14.20
2019-04-07T14:04:39.222Z,14.03
2019-04-07T14:07:19.771Z,16.52
2019-04-07T14:09:53.907Z,15.65
2019-04-07T14:12:34.575Z,12.98
2019-04-07T14:15:11.448Z,18.23
2019-04-07T14:17:56.896Z,18.87
2019-04-07T14:20:33.014Z,14.33
2019-04-07T14:23:22.523Z,16.57
2019-04-07T14:25:58.776Z,12.33
2019-04-07T14:28:35.710Z,21.33
2019-04-07T14:31:09.456Z,17.07
2019-04-07T14:33:49.162Z,20.65
2019-04-07T14:36:31.566Z,12.88
2019-04-07T14:41:47.327Z,16.35
2019-04-07T14:44:21.431Z,13.78
2019-04-07T14:46:57.665Z,17.70
2019-04-07T14:49:33.868Z,13.22
2019-04-07T14:52:24.303Z,12.50
2019-04-07T14:55:00.012Z,15.93
2019-04-07T14:57:43.678Z,15.68
2019-04-07T15:00:20.448Z,15.58
2019-04-07T15:02:52.946Z,12.00
2019-04-07T15:08:17.293Z,11.65
2019-04-07T15:10:51.640Z,15.95
2019-04-07T15:13:27.936Z,13.62
2019-04-07T15:15:58.552Z,14.87
2019-04-07T15:18:30.190Z,23.32
2019-04-07T15:21:02.346Z,14.25
2019-04-07T15:23:34.419Z,14.55
2019-04-07T15:26:06.473Z,14.00
2019-04-07T15:28:38.429Z,13.35
2019-04-07T15:31:10.254Z,20.72
2019-04-07T15:33:42.408Z,16.15
2019-04-07T15:36:17.537Z,13.70
2019-04-07T15:38:47.801Z,22.10
2019-04-07T15:41:22.199Z,16.50
2019-04-07T15:43:55.219Z,18.87
2019-04-07T15:46:27.327Z,17.87
2019-04-07T15:48:59.435Z,16.67
2019-04-07T15:51:34.388Z,24.90
2019-04-07T15:54:06.219Z,33.18
2019-04-07T15:56:38.314Z,25.77
2019-04-07T15:59:10.076Z,28.67
2019-04-07T16:01:41.900Z,29.05
2019-04-07T16:04:13.976Z,29.10
2019-04-07T16:06:48.116Z,23.75
2019-04-07T16:09:33.375Z,32.58
2019-04-07T16:11:53.328Z,32.55
2019-04-07T16:14:25.262Z,30.32
2019-04-07T16:16:59.616Z,32.17
2019-04-07T16:19:38.204Z,30.45
2019-04-07T16:22:04.516Z,23.27
2019-04-07T16:24:36.148Z,28.42
2019-04-07T16:29:41.303Z,30.88
2019-04-07T16:32:13.536Z,34.73
2019-04-07T16:34:46.259Z,31.52
2019-04-07T16:37:18.188Z,35.40
2019-04-07T16:39:50.239Z,38.67
2019-04-07T16:42:22.038Z,87.67
2019-04-07T16:44:54.848Z,29.05
2019-04-07T16:47:32.768Z,27.82
2019-04-07T16:50:00.010Z,32.65
2019-04-07T16:52:33.979Z,23.40
2019-04-07T16:55:09.258Z,24.87
2019-04-07T16:57:41.133Z,32.33
2019-04-07T17:00:16.391Z,26.57
2019-04-07T17:02:48.218Z,31.33
2019-04-07T17:05:22.001Z,22.27
2019-04-07T17:07:56.547Z,35.52
2019-04-07T17:10:30.949Z,28.25
2019-04-07T17:13:05.327Z,25.12
2019-04-07T17:15:38.199Z,24.25
2019-04-07T17:18:10.627Z,20.02
2019-04-07T17:20:42.380Z,25.08
2019-04-07T17:23:14.256Z,34.17
2019-04-07T17:25:45.990Z,29.55
2019-04-07T17:28:18.365Z,33.28
2019-04-07T17:33:23.219Z,28.35
2019-04-07T17:35:55.384Z,23.20
2019-04-07T17:38:29.144Z,26.25
2019-04-07T17:41:01.017Z,30.82
2019-04-07T17:43:52.819Z,32.50
2019-04-07T17:46:38.344Z,36.08
2019-04-07T17:49:14.726Z,34.67
2019-04-07T17:51:54.044Z,37.65
2019-04-07T17:54:34.435Z,34.88
2019-04-07T17:57:16.881Z,35.70
2019-04-07T18:00:05.864Z,35.00
2019-04-07T18:02:54.016Z,36.10
2019-04-07T18:05:36.595Z,33.00
2019-04-07T18:08:16.463Z,39.03
2019-04-07T18:11:05.051Z,36.80
2019-04-07T18:13:57.672Z,40.15
2019-04-07T18:16:46.448Z,32.75
2019-04-07T18:19:19.788Z,32.08
2019-04-07T18:21:59.749Z,31.10
2019-04-07T18:24:48.741Z,32.85
2019-04-07T18:27:23.231Z,30.05
2019-04-07T18:30:03.437Z,31.45
2019-04-07T18:32:51.758Z,29.45
2019-04-07T18:35:40.919Z,28.45
2019-04-07T18:38:29.778Z,26.60
2019-04-07T18:41:13.111Z,28.38
2019-04-07T18:44:04.636Z,27.95
2019-04-07T18:46:34.606Z,34.53
2019-04-07T18:49:08.301Z,25.72
2019-04-07T18:51:49.008Z,24.30
2019-04-07T18:54:38.834Z,24.77
2019-04-07T18:57:12.749Z,24.02
2019-04-07T19:00:04.286Z,32.73
2019-04-07T19:02:38.355Z,45.67
2019-04-07T19:05:15.279Z,40.03
2019-04-07T19:07:51.760Z,44.63
2019-04-07T19:10:28.017Z,54.27
2019-04-07T19:13:12.768Z,50.50
2019-04-07T19:15:51.935Z,40.60
2019-04-07T19:18:45.262Z,50.45
2019-04-07T19:21:20.434Z,49.67
2019-04-07T19:23:59.130Z,45.78
2019-04-07T19:26:41.080Z,55.92
2019-04-07T19:31:52.522Z,51.55
2019-04-07T19:34:32.788Z,51.30
2019-04-07T19:37:20.157Z,58.98
2019-04-07T19:40:08.579Z,58.80
2019-04-07T19:42:49.546Z,59.58
2019-04-07T19:45:25.412Z,54.35
2019-04-07T19:48:01.930Z,59.60
2019-04-07T19:51:03.193Z,59.73
2019-04-07T19:53:43.261Z,65.85
2019-04-07T19:56:23.793Z,67.25
2019-04-07T19:58:59.911Z,78.70
2019-04-07T20:01:33.649Z,73.60
2019-04-07T20:04:25.906Z,66.33
2019-04-07T20:07:17.933Z,60.80
2019-04-07T20:10:06.701Z,60.45
2019-04-07T20:12:44.046Z,69.80
2019-04-07T20:15:31.013Z,61.35
2019-04-07T20:18:05.548Z,50.92
2019-04-07T20:20:48.521Z,53.02
2019-04-07T20:23:22.917Z,56.98
2019-04-07T20:25:57.370Z,54.45
2019-04-07T20:28:32.975Z,56.40
2019-04-07T20:31:12.684Z,47.58
2019-04-07T20:33:49.086Z,60.15
2019-04-07T20:36:24.622Z,48.92
2019-04-07T20:39:03.966Z,48.73
2019-04-07T20:41:56.765Z,57.17
2019-04-07T20:44:35.233Z,59.18
2019-04-07T20:47:26.444Z,59.00
2019-04-07T20:50:11.911Z,60.60
2019-04-07T20:53:10.126Z,57.83
2019-04-07T20:55:50.733Z,51.00
2019-04-07T20:58:43.669Z,56.33
2019-04-07T21:01:10.045Z,47.13
2019-04-07T21:03:51.632Z,50.75
2019-04-07T21:06:42.627Z,50.78
2019-04-07T21:09:34.554Z,53.68
2019-04-07T21:12:12.774Z,65.17
2019-04-07T21:15:16.182Z,61.40
2019-04-07T21:17:38.597Z,52.48
2019-04-07T21:20:13.130Z,42.53
2019-04-07T21:22:58.415Z,43.42
2019-04-07T21:25:46.995Z,43.50
2019-04-07T21:28:29.403Z,35.83
2019-04-07T21:31:21.438Z,41.45
2019-04-07T21:33:55.801Z,43.70
2019-04-07T21:36:32.819Z,39.03
2019-04-07T21:39:21.729Z,55.90
2019-04-07T21:41:54.885Z,60.52
2019-04-07T21:44:29.305Z,53.92
2019-04-07T21:47:19.128Z,51.90
2019-04-07T21:50:05.447Z,54.33
2019-04-07T21:52:52.935Z,48.65
2019-04-07T21:55:41.955Z,55.00
2019-04-07T21:58:31.551Z,48.65
2019-04-07T22:01:21.057Z,42.50
2019-04-07T22:03:54.630Z,51.00
2019-04-07T22:06:29.802Z,49.25
2019-04-07T22:09:03.202Z,48.15
2019-04-07T22:11:36.747Z,52.03
2019-04-07T22:14:08.617Z,46.40
2019-04-07T22:16:41.004Z,44.27
2019-04-07T22:19:14.926Z,35.92
2019-04-07T22:21:48.066Z,27.62
2019-04-07T22:24:20.745Z,28.47
2019-04-07T22:26:53.326Z,22.52
2019-04-07T22:29:25.423Z,23.42
2019-04-07T22:31:58.581Z,26.12
2019-04-07T22:34:32.684Z,27.77
2019-04-07T22:37:03.592Z,24.35
2019-04-07T22:39:35.733Z,20.88
2019-04-07T22:42:08.495Z,28.60
2019-04-07T22:44:40.363Z,33.25
2019-04-07T22:47:14.430Z,30.25
2019-04-07T22:49:46.106Z,36.98
2019-04-07T22:52:18.952Z,30.25
2019-04-07T22:54:50.668Z,33.80
2019-04-07T22:57:22.627Z,26.93
2019-04-07T22:59:54.585Z,26.97
2019-04-07T23:02:26.353Z,34.85
2019-04-07T23:04:58.761Z,36.33
2019-04-07T23:07:30.622Z,43.70
2019-04-07T23:10:02.781Z,51.70
2019-04-07T23:12:36.085Z,51.58
2019-04-07T23:15:07.991Z,53.78
2019-04-07T23:17:40.304Z,53.63
2019-04-07T23:20:13.072Z,50.48
2019-04-07T23:22:45.179Z,45.55
2019-04-07T23:25:17.581Z,45.65
2019-04-07T23:27:50.020Z,46.58
2019-04-07T23:30:23.656Z,51.33
2019-04-07T23:32:55.724Z,42.05
2019-04-07T23:35:27.387Z,44.85
2019-04-07T23:38:00.373Z,46.58
2019-04-07T23:40:32.243Z,43.68
2019-04-07T23:43:04.779Z,45.17
2019-04-07T23:45:36.364Z,39.20
2019-04-07T23:48:08.420Z,45.53
2019-04-07T23:50:41.158Z,36.30
2019-04-07T23:53:49.140Z,34.10
2019-04-07T23:56:20.766Z,36.90
2019-04-07T23:58:52.536Z,34.33
